Deering (New), AK

16:05 AKDT le 31 Mars 2015 (GMT -0800)
Wien Memorial | | Change Station
CLOSE
Current Station
Aéroport
Location: Kotzebue,
Altitude: 16 ft
Stations météo à proximité

Alt. 16 ft 66.88 °N, 162.60 °W | Updated 12 minutes ago

Overcast
Couvert
6 ° F
Paraît -9 ° F
N
10
Vent Variable Vent de ONO

Aujourd'hui
Haut(e) -- | Bas -- ° F
--% Risque de précip.
Hier
Haut(e) -- | Bas -- ° F
Precip. -- pouce
8:08 AM 9:43 PM
Lune gibbeuse croissante, 89% visible
Pression 29.81 pouce
Visibilité 10.0 Miles terrestres
Nuages Couvert 4200 ft
Refroidissement éolien -9 ° F
Point de rosée 1 ° F
Humidité 80%
Précipitations 0.02 pouce
Profondeur de la couche neigeuse Non disponible.
UV 1 sur 12
Pollen Non disponible.
Qualité de l'air Non disponible.
Flu Activity Non disponible.
METAR PAOT 312353Z 29009KT 10SM OVC042 M14/M17 A2981 RMK AO2 SNE23 SLP093 P0000 60002 T11441172 11139 21150 51010

More Conditions Fewer Conditions

Pression 29.81 pouce
Visibilité 10.0 Miles terrestres
Nuages Couvert 4200 ft
Refroidissement éolien -9 ° F
Point de rosée 1 ° F
Humidité 80%
Précipitations 0.02 pouce
Profondeur de la couche neigeuse Non disponible.
UV 1 sur 12
Pollen Non disponible.
Qualité de l'air Non disponible.
Flu Activity Non disponible.
METAR PAOT 312353Z 29009KT 10SM OVC042 M14/M17 A2981 RMK AO2 SNE23 SLP093 P0000 60002 T11441172 11139 21150 51010

More Conditions Fewer Conditions

10-Day Weather Forecast

Almanac

Astronomie

Mar. 31, 2015 Lever Coucher
Temps réel
Crépuscule civil
Crépuscule nautique
Crépuscule astronomique
Lune
Durée de lumière visible
Longueur du jour
Tomorrow will be .
, % of the Moon is Illuminated

Extrêmes aujourd'hui

State Highs State Lows

Community

WunderPhotos

Upload Photos

1,809,883 Photos téléchargées !

WunderBlogs® & News

Nearby

Qualité de l'air

  Qualité de l'air Indice de la qualité de l'air Polluant
Not available.

Épaisseur de neige

Station Depth Altitude

Activité sismique

Ville Distance Mag. Time & Date
Minimum magnitude displayed is 2.5.

Températures des eaux côtières

Lieu Température

Stations

Stations météo à proximité

Emplacement de la station Température Refroidissement éolien Point de rosée Humidité Vent Precip. Alt. Mise à jour Type